createdAt,value
2023-02-08T00:02:56.548Z,7.40
2023-02-08T00:07:57.879Z,6.80
2023-02-08T00:12:59.309Z,7.83
2023-02-08T00:18:00.573Z,7.70
2023-02-08T00:23:02.031Z,8.10
2023-02-08T00:28:04.751Z,8.27
2023-02-08T00:33:06.178Z,7.45
2023-02-08T00:38:07.474Z,7.40
2023-02-08T00:43:08.795Z,8.75
2023-02-08T00:48:10.075Z,7.07
2023-02-08T00:53:11.355Z,8.48
2023-02-08T00:58:12.599Z,7.97
2023-02-08T01:03:13.844Z,7.13
2023-02-08T01:08:15.425Z,7.10
2023-02-08T01:13:16.733Z,8.30
2023-02-08T01:18:18.027Z,7.70
2023-02-08T01:23:19.335Z,7.53
2023-02-08T01:28:20.618Z,7.53
2023-02-08T01:33:21.938Z,7.40
2023-02-08T01:38:23.240Z,8.17
2023-02-08T01:43:28.712Z,7.78
2023-02-08T01:48:36.693Z,7.55
2023-02-08T01:53:38.407Z,7.47
2023-02-08T01:58:42.084Z,8.90
2023-02-08T02:03:43.937Z,10.07
2023-02-08T02:08:49.489Z,8.50
2023-02-08T02:13:51.206Z,7.95
2023-02-08T02:18:53.599Z,8.10
2023-02-08T02:24:00.630Z,8.32
2023-02-08T02:29:01.943Z,7.03
2023-02-08T02:34:23.459Z,7.53
2023-02-08T02:39:37.059Z,8.23
2023-02-08T02:44:57.318Z,6.83
2023-02-08T02:50:11.846Z,7.03
2023-02-08T02:55:15.268Z,7.10
2023-02-08T03:00:20.778Z,7.63
2023-02-08T03:05:22.229Z,7.90
2023-02-08T03:10:29.758Z,7.20
2023-02-08T03:15:40.164Z,7.50
2023-02-08T03:20:43.261Z,7.03
2023-02-08T03:25:47.468Z,7.47
2023-02-08T03:30:52.692Z,7.68
2023-02-08T03:35:57.419Z,6.90
2023-02-08T03:40:59.931Z,7.95
2023-02-08T03:46:10.849Z,7.93
2023-02-08T03:51:12.307Z,7.45
2023-02-08T03:56:31.846Z,7.63
2023-02-08T04:01:36.759Z,6.80
2023-02-08T04:06:38.097Z,7.32
2023-02-08T04:11:39.384Z,7.57
2023-02-08T04:16:40.700Z,8.00
2023-02-08T04:21:41.986Z,7.50
2023-02-08T04:26:43.279Z,7.67
2023-02-08T04:31:44.593Z,7.40
2023-02-08T04:36:45.902Z,8.00
2023-02-08T04:41:47.159Z,8.48
2023-02-08T04:46:48.401Z,6.95
2023-02-08T04:51:49.679Z,7.53
2023-02-08T04:56:51.163Z,7.75
2023-02-08T05:01:52.530Z,8.77
2023-02-08T05:06:53.837Z,9.85
2023-02-08T05:11:55.083Z,8.98
2023-02-08T05:16:56.311Z,8.33
2023-02-08T05:21:57.618Z,8.95
2023-02-08T05:27:01.407Z,8.90
2023-02-08T05:32:02.766Z,9.02
2023-02-08T05:37:04.247Z,7.75
2023-02-08T05:42:05.851Z,7.70
2023-02-08T05:47:07.231Z,7.90
2023-02-08T05:52:08.492Z,9.73
2023-02-08T05:57:09.753Z,8.27
2023-02-08T06:02:11.060Z,8.90
2023-02-08T06:07:12.396Z,10.53
2023-02-08T06:12:13.652Z,11.50
2023-02-08T06:17:14.964Z,13.03
2023-02-08T06:22:16.313Z,10.68
2023-02-08T06:27:17.576Z,9.75
2023-02-08T06:32:18.909Z,17.17
2023-02-08T06:37:20.205Z,21.35
2023-02-08T06:42:21.479Z,13.47
2023-02-08T06:47:23.382Z,10.77
2023-02-08T06:52:24.632Z,8.70
2023-02-08T06:57:25.988Z,10.50
2023-02-08T07:02:27.614Z,11.27
2023-02-08T07:07:28.987Z,16.13
2023-02-08T07:12:33.094Z,15.05
2023-02-08T07:17:34.412Z,13.30
2023-02-08T07:22:35.656Z,13.87
2023-02-08T07:27:37.065Z,15.52
2023-02-08T07:32:38.384Z,11.67
2023-02-08T07:37:39.736Z,11.00
2023-02-08T07:42:41.131Z,11.38
2023-02-08T07:47:42.425Z,13.83
2023-02-08T07:52:45.975Z,13.05
2023-02-08T07:57:48.654Z,13.97
2023-02-08T08:02:51.182Z,12.05
2023-02-08T08:07:53.729Z,13.75
2023-02-08T08:12:54.993Z,12.03
2023-02-08T08:17:56.430Z,12.68
2023-02-08T08:22:57.697Z,12.10
2023-02-08T08:27:59.266Z,12.88
2023-02-08T08:33:00.597Z,11.75
2023-02-08T08:38:01.842Z,9.93
2023-02-08T08:43:03.108Z,10.80
2023-02-08T08:48:04.551Z,8.40
2023-02-08T08:53:05.847Z,8.50
2023-02-08T08:58:07.180Z,7.63
2023-02-08T09:03:08.544Z,7.40
2023-02-08T09:08:09.938Z,7.80
2023-02-08T09:13:11.340Z,7.83
2023-02-08T09:18:12.677Z,9.13
2023-02-08T09:23:14.624Z,7.68
2023-02-08T09:28:15.998Z,7.80
2023-02-08T09:33:17.309Z,7.13
2023-02-08T09:38:18.645Z,7.47
2023-02-08T09:43:42.738Z,8.18
2023-02-08T09:48:45.043Z,7.18
2023-02-08T09:53:50.325Z,7.30
2023-02-08T09:58:52.772Z,6.97
2023-02-08T10:03:56.993Z,7.00
2023-02-08T10:08:59.659Z,6.53
2023-02-08T10:14:08.038Z,6.78
2023-02-08T10:19:24.236Z,6.67
2023-02-08T10:24:34.655Z,7.45
2023-02-08T10:29:35.994Z,7.70
2023-02-08T10:34:49.363Z,6.68
2023-02-08T10:39:51.169Z,6.18
2023-02-08T10:45:23.823Z,7.13
2023-02-08T10:50:31.941Z,6.97
2023-02-08T10:55:36.438Z,6.20
2023-02-08T11:00:41.288Z,7.43
2023-02-08T11:05:42.976Z,7.10
2023-02-08T11:10:46.345Z,7.30
2023-02-08T11:15:49.845Z,7.22
2023-02-08T11:20:52.665Z,6.27
2023-02-08T11:25:54.595Z,7.20
2023-02-08T11:31:00.597Z,6.75
2023-02-08T11:36:04.060Z,6.80
2023-02-08T11:41:13.866Z,6.85
2023-02-08T11:46:22.114Z,6.83
2023-02-08T11:51:26.301Z,7.78
2023-02-08T11:56:31.966Z,6.97
2023-02-08T12:01:34.840Z,6.43
2023-02-08T12:06:45.170Z,7.25
2023-02-08T12:11:48.123Z,6.37
2023-02-08T12:16:50.965Z,6.60
2023-02-08T12:21:55.329Z,6.63
2023-02-08T12:27:03.444Z,7.30
2023-02-08T12:32:16.911Z,6.88
2023-02-08T12:37:37.290Z,7.07
2023-02-08T12:42:47.478Z,7.50
2023-02-08T12:48:09.027Z,6.65
2023-02-08T12:53:10.313Z,6.60
2023-02-08T12:58:25.859Z,6.20
2023-02-08T13:03:31.967Z,6.60
2023-02-08T13:08:40.904Z,7.50
2023-02-08T13:13:42.900Z,6.32
2023-02-08T13:18:55.558Z,6.07
2023-02-08T13:23:57.953Z,6.07
2023-02-08T13:29:01.563Z,5.67
2023-02-08T13:34:08.554Z,6.18
2023-02-08T13:39:27.524Z,5.63
2023-02-08T13:44:33.992Z,7.10
2023-02-08T13:49:51.847Z,6.25
2023-02-08T13:55:13.142Z,5.53
2023-02-08T14:00:28.270Z,6.78
2023-02-08T14:05:35.464Z,6.97
2023-02-08T14:10:41.755Z,6.17
2023-02-08T14:15:43.988Z,5.78
2023-02-08T14:20:55.478Z,5.83
2023-02-08T14:25:58.136Z,5.55
2023-02-08T14:31:01.082Z,6.65
2023-02-08T14:36:07.091Z,5.90
2023-02-08T14:41:08.401Z,6.47
2023-02-08T14:46:28.452Z,6.50
2023-02-08T14:51:32.169Z,5.93
2023-02-08T14:56:45.322Z,5.93
2023-02-08T15:01:47.739Z,6.17
2023-02-08T15:06:50.212Z,7.18
2023-02-08T15:11:57.365Z,5.20
2023-02-08T15:16:58.778Z,5.60
2023-02-08T15:22:18.603Z,5.38
2023-02-08T15:27:21.747Z,5.73
2023-02-08T15:32:24.443Z,5.43
2023-02-08T15:37:26.334Z,6.73
2023-02-08T15:42:31.688Z,5.68
2023-02-08T15:47:35.783Z,5.20
2023-02-08T15:52:37.297Z,5.57
2023-02-08T15:57:46.916Z,5.50
2023-02-08T16:02:52.909Z,6.20
2023-02-08T16:07:54.580Z,5.55
2023-02-08T16:12:57.450Z,5.35
2023-02-08T16:17:58.788Z,7.33
2023-02-08T16:23:00.081Z,6.30
2023-02-08T16:28:01.985Z,6.67
2023-02-08T16:33:08.854Z,4.88
2023-02-08T16:38:10.439Z,4.70
2023-02-08T16:43:16.493Z,6.20
2023-02-08T16:48:28.889Z,5.20
2023-02-08T16:53:41.414Z,8.10
2023-02-08T16:58:43.288Z,9.18
2023-02-08T17:03:44.721Z,6.20
2023-02-08T17:08:46.047Z,4.87
2023-02-08T17:13:47.436Z,5.28
2023-02-08T17:18:49.265Z,4.60
2023-02-08T17:23:50.544Z,5.35
2023-02-08T17:28:51.818Z,4.80
2023-02-08T17:33:53.087Z,5.63
2023-02-08T17:38:54.370Z,5.35
2023-02-08T17:43:56.165Z,5.50
2023-02-08T17:49:00.628Z,5.72
2023-02-08T17:54:05.455Z,6.07
2023-02-08T17:59:07.437Z,6.13
2023-02-08T18:04:11.182Z,6.40
2023-02-08T18:09:12.510Z,7.23
2023-02-08T18:14:14.235Z,6.45
2023-02-08T18:19:15.977Z,6.35
2023-02-08T18:24:17.817Z,6.37
2023-02-08T18:29:19.342Z,7.05
2023-02-08T18:34:20.655Z,6.83
2023-02-08T18:39:23.195Z,6.20
2023-02-08T18:44:24.465Z,7.38
2023-02-08T18:49:25.877Z,7.17
2023-02-08T18:54:27.177Z,7.60
2023-02-08T18:59:28.502Z,7.00
2023-02-08T19:04:29.862Z,7.05
2023-02-08T19:09:31.202Z,8.35
2023-02-08T19:14:32.615Z,8.80
2023-02-08T19:19:33.985Z,7.05
2023-02-08T19:24:35.379Z,7.00
2023-02-08T19:29:36.775Z,6.88
2023-02-08T19:34:38.108Z,6.97
2023-02-08T19:39:39.539Z,10.37
2023-02-08T19:44:40.804Z,10.23
2023-02-08T19:49:42.086Z,8.67
2023-02-08T19:54:43.406Z,10.85
2023-02-08T19:59:44.880Z,8.77
2023-02-08T20:04:46.213Z,8.17
2023-02-08T20:09:48.925Z,7.97
2023-02-08T20:14:50.377Z,9.57
2023-02-08T20:19:52.405Z,11.68
2023-02-08T20:24:53.828Z,12.15
2023-02-08T20:29:55.524Z,10.70
2023-02-08T20:34:59.767Z,11.80
2023-02-08T20:40:01.326Z,10.03
2023-02-08T20:45:02.723Z,9.70
2023-02-08T20:50:16.818Z,10.27
2023-02-08T20:55:20.027Z,9.10
2023-02-08T21:00:27.943Z,13.02
2023-02-08T21:05:34.819Z,14.90
2023-02-08T21:10:36.997Z,17.85
2023-02-08T21:15:42.220Z,12.35
2023-02-08T21:20:44.019Z,10.33
2023-02-08T21:25:45.656Z,9.88
2023-02-08T21:31:16.271Z,9.33
2023-02-08T21:36:18.775Z,8.90
2023-02-08T21:41:21.773Z,8.70
2023-02-08T21:46:24.712Z,8.97
2023-02-08T21:51:45.119Z,9.68
2023-02-08T21:56:46.432Z,10.50
2023-02-08T22:01:47.925Z,9.60
2023-02-08T22:06:49.436Z,9.80
2023-02-08T22:11:50.788Z,9.83
2023-02-08T22:16:52.228Z,9.35
2023-02-08T22:21:54.600Z,10.00
2023-02-08T22:26:56.078Z,9.10
2023-02-08T22:31:57.541Z,8.68
2023-02-08T22:36:58.939Z,8.63
2023-02-08T22:42:00.227Z,10.13
2023-02-08T22:47:01.730Z,9.30
2023-02-08T22:52:03.088Z,9.75
2023-02-08T22:57:05.834Z,9.50
2023-02-08T23:02:07.153Z,9.50
2023-02-08T23:07:08.590Z,10.20
2023-02-08T23:12:09.879Z,10.03
2023-02-08T23:17:11.659Z,9.63
2023-02-08T23:22:13.304Z,10.40
2023-02-08T23:27:14.593Z,10.30
2023-02-08T23:32:15.944Z,11.38
2023-02-08T23:37:17.343Z,9.37
2023-02-08T23:42:27.899Z,10.50
2023-02-08T23:47:29.700Z,11.55
2023-02-08T23:52:30.989Z,11.53
2023-02-08T23:57:36.001Z,11.90
